sensor_id;sensor_type;location;lat;lon;timestamp;P1;durP1;ratioP1;P2;durP2;ratioP2
24681;SDS011;12802;53.390;-2.328;2024-01-15T00:00:00;12.43;;;6.10;;
24681;SDS011;12802;53.390;-2.328;2024-01-15T00:02:26;10.00;;;5.32;;
24681;SDS011;12802;53.390;-2.328;2024-01-15T00:04:52;9.07;;;6.10;;
24681;SDS011;12802;53.390;-2.328;2024-01-15T00:07:18;8.77;;;5.10;;
24681;SDS011;12802;53.390;-2.328;2024-01-15T00:09:44;11.93;;;6.43;;
24681;SDS011;12802;53.390;-2.328;2024-01-15T00:12:10;13.60;;;6.20;;
24681;SDS011;12802;53.390;-2.328;2024-01-15T00:14:36;12.50;;;5.72;;
24681;SDS011;12802;53.390;-2.328;2024-01-15T00:17:03;12.25;;;5.90;;
24681;SDS011;12802;53.390;-2.328;2024-01-15T00:19:29;13.25;;;6.00;;
24681;SDS011;12802;53.390;-2.328;2024-01-15T00:21:57;12.52;;;6.15;;
24681;SDS011;12802;53.390;-2.328;2024-01-15T00:24:25;11.98;;;5.72;;
24681;SDS011;12802;53.390;-2.328;2024-01-15T00:26:51;10.32;;;6.05;;
24681;SDS011;12802;53.390;-2.328;2024-01-15T00:29:18;16.52;;;5.95;;
24681;SDS011;12802;53.390;-2.328;2024-01-15T00:31:44;10.75;;;6.03;;
24681;SDS011;12802;53.390;-2.328;2024-01-15T00:34:11;12.15;;;5.78;;
24681;SDS011;12802;53.390;-2.328;2024-01-15T00:36:37;9.73;;;5.18;;
24681;SDS011;12802;53.390;-2.328;2024-01-15T00:39:03;7.97;;;4.70;;
24681;SDS011;12802;53.390;-2.328;2024-01-15T00:41:30;12.35;;;5.75;;
24681;SDS011;12802;53.390;-2.328;2024-01-15T00:43:56;9.73;;;4.18;;
24681;SDS011;12802;53.390;-2.328;2024-01-15T00:46:23;12.30;;;5.53;;
24681;SDS011;12802;53.390;-2.328;2024-01-15T00:48:49;8.25;;;4.50;;
24681;SDS011;12802;53.390;-2.328;2024-01-15T00:51:15;7.75;;;3.63;;
24681;SDS011;12802;53.390;-2.328;2024-01-15T00:53:41;8.13;;;4.10;;
24681;SDS011;12802;53.390;-2.328;2024-01-15T00:56:07;8.70;;;3.78;;
24681;SDS011;12802;53.390;-2.328;2024-01-15T00:58:34;7.97;;;3.50;;
24681;SDS011;12802;53.390;-2.328;2024-01-15T01:01:00;6.65;;;3.67;;
24681;SDS011;12802;53.390;-2.328;2024-01-15T01:03:26;8.13;;;3.45;;
24681;SDS011;12802;53.390;-2.328;2024-01-15T01:05:52;8.80;;;3.67;;
24681;SDS011;12802;53.390;-2.328;2024-01-15T01:08:18;8.40;;;3.50;;
24681;SDS011;12802;53.390;-2.328;2024-01-15T01:10:44;8.05;;;3.80;;
24681;SDS011;12802;53.390;-2.328;2024-01-15T01:13:10;6.93;;;3.00;;
24681;SDS011;12802;53.390;-2.328;2024-01-15T01:15:37;6.13;;;2.42;;
24681;SDS011;12802;53.390;-2.328;2024-01-15T01:18:04;6.78;;;2.33;;
24681;SDS011;12802;53.390;-2.328;2024-01-15T01:20:30;8.65;;;2.17;;
24681;SDS011;12802;53.390;-2.328;2024-01-15T01:22:56;4.60;;;1.70;;
24681;SDS011;12802;53.390;-2.328;2024-01-15T01:25:22;2.88;;;1.90;;
24681;SDS011;12802;53.390;-2.328;2024-01-15T01:27:48;6.15;;;1.27;;
24681;SDS011;12802;53.390;-2.328;2024-01-15T01:30:14;2.67;;;1.10;;
24681;SDS011;12802;53.390;-2.328;2024-01-15T01:32:41;2.25;;;1.00;;
24681;SDS011;12802;53.390;-2.328;2024-01-15T01:35:07;4.65;;;1.30;;
24681;SDS011;12802;53.390;-2.328;2024-01-15T01:37:33;1.10;;;0.75;;
24681;SDS011;12802;53.390;-2.328;2024-01-15T01:40:00;5.53;;;1.52;;
24681;SDS011;12802;53.390;-2.328;2024-01-15T01:42:26;2.35;;;1.20;;
24681;SDS011;12802;53.390;-2.328;2024-01-15T01:44:52;4.30;;;1.45;;
24681;SDS011;12802;53.390;-2.328;2024-01-15T01:47:18;2.92;;;1.42;;
24681;SDS011;12802;53.390;-2.328;2024-01-15T01:49:45;2.67;;;0.93;;
24681;SDS011;12802;53.390;-2.328;2024-01-15T01:52:11;3.03;;;1.20;;
24681;SDS011;12802;53.390;-2.328;2024-01-15T01:54:37;3.20;;;1.23;;
24681;SDS011;12802;53.390;-2.328;2024-01-15T01:57:04;4.25;;;1.23;;
24681;SDS011;12802;53.390;-2.328;2024-01-15T01:59:33;2.80;;;1.52;;
24681;SDS011;12802;53.390;-2.328;2024-01-15T02:02:00;4.00;;;1.30;;
24681;SDS011;12802;53.390;-2.328;2024-01-15T02:04:27;3.38;;;1.33;;
24681;SDS011;12802;53.390;-2.328;2024-01-15T02:06:53;3.08;;;1.25;;
24681;SDS011;12802;53.390;-2.328;2024-01-15T02:09:19;3.83;;;1.30;;
24681;SDS011;12802;53.390;-2.328;2024-01-15T02:11:46;4.22;;;1.10;;
24681;SDS011;12802;53.390;-2.328;2024-01-15T02:14:13;4.32;;;1.30;;
24681;SDS011;12802;53.390;-2.328;2024-01-15T02:16:39;1.85;;;0.93;;
24681;SDS011;12802;53.390;-2.328;2024-01-15T02:19:05;3.53;;;1.20;;
24681;SDS011;12802;53.390;-2.328;2024-01-15T02:21:32;6.13;;;1.20;;
24681;SDS011;12802;53.390;-2.328;2024-01-15T02:23:58;2.15;;;0.95;;
24681;SDS011;12802;53.390;-2.328;2024-01-15T02:26:24;2.30;;;1.20;;
24681;SDS011;12802;53.390;-2.328;2024-01-15T02:28:50;2.58;;;1.05;;
24681;SDS011;12802;53.390;-2.328;2024-01-15T02:31:17;3.05;;;1.33;;
24681;SDS011;12802;53.390;-2.328;2024-01-15T02:33:43;3.55;;;1.08;;
24681;SDS011;12802;53.390;-2.328;2024-01-15T02:36:11;3.80;;;1.08;;
24681;SDS011;12802;53.390;-2.328;2024-01-15T02:38:37;2.33;;;1.20;;
24681;SDS011;12802;53.390;-2.328;2024-01-15T02:41:04;2.67;;;0.90;;
24681;SDS011;12802;53.390;-2.328;2024-01-15T02:43:30;4.70;;;1.17;;
24681;SDS011;12802;53.390;-2.328;2024-01-15T02:45:56;3.33;;;1.10;;
24681;SDS011;12802;53.390;-2.328;2024-01-15T02:48:22;2.58;;;0.90;;
24681;SDS011;12802;53.390;-2.328;2024-01-15T02:50:48;2.60;;;0.90;;
24681;SDS011;12802;53.390;-2.328;2024-01-15T02:53:14;1.73;;;0.88;;
24681;SDS011;12802;53.390;-2.328;2024-01-15T02:55:40;3.08;;;0.95;;
24681;SDS011;12802;53.390;-2.328;2024-01-15T02:58:07;2.85;;;0.93;;
24681;SDS011;12802;53.390;-2.328;2024-01-15T03:00:33;4.00;;;1.38;;
24681;SDS011;12802;53.390;-2.328;2024-01-15T03:02:59;4.05;;;1.00;;
24681;SDS011;12802;53.390;-2.328;2024-01-15T03:05:25;2.58;;;0.90;;
24681;SDS011;12802;53.390;-2.328;2024-01-15T03:07:51;2.55;;;1.23;;
24681;SDS011;12802;53.390;-2.328;2024-01-15T03:10:17;7.50;;;1.25;;
24681;SDS011;12802;53.390;-2.328;2024-01-15T03:12:44;2.05;;;0.90;;
24681;SDS011;12802;53.390;-2.328;2024-01-15T03:15:10;4.22;;;1.00;;
24681;SDS011;12802;53.390;-2.328;2024-01-15T03:17:36;2.22;;;0.90;;
24681;SDS011;12802;53.390;-2.328;2024-01-15T03:20:02;4.40;;;1.35;;
24681;SDS011;12802;53.390;-2.328;2024-01-15T03:22:28;4.20;;;0.95;;
24681;SDS011;12802;53.390;-2.328;2024-01-15T03:24:55;4.32;;;1.00;;
24681;SDS011;12802;53.390;-2.328;2024-01-15T03:27:21;3.53;;;1.05;;
24681;SDS011;12802;53.390;-2.328;2024-01-15T03:29:47;3.85;;;1.20;;
24681;SDS011;12802;53.390;-2.328;2024-01-15T03:32:13;2.83;;;1.23;;
24681;SDS011;12802;53.390;-2.328;2024-01-15T03:34:41;2.80;;;1.00;;
24681;SDS011;12802;53.390;-2.328;2024-01-15T03:37:07;1.85;;;0.80;;
24681;SDS011;12802;53.390;-2.328;2024-01-15T03:39:33;2.17;;;0.80;;
24681;SDS011;12802;53.390;-2.328;2024-01-15T03:41:59;4.10;;;0.80;;
24681;SDS011;12802;53.390;-2.328;2024-01-15T03:44:25;6.43;;;1.25;;
24681;SDS011;12802;53.390;-2.328;2024-01-15T03:46:52;3.35;;;0.80;;
24681;SDS011;12802;53.390;-2.328;2024-01-15T03:49:18;2.28;;;1.20;;
24681;SDS011;12802;53.390;-2.328;2024-01-15T03:51:44;6.32;;;1.10;;
24681;SDS011;12802;53.390;-2.328;2024-01-15T03:54:10;2.95;;;1.20;;
24681;SDS011;12802;53.390;-2.328;2024-01-15T03:56:36;6.13;;;1.33;;
24681;SDS011;12802;53.390;-2.328;2024-01-15T03:59:02;2.20;;;0.90;;
24681;SDS011;12802;53.390;-2.328;2024-01-15T04:01:28;3.78;;;0.88;;
24681;SDS011;12802;53.390;-2.328;2024-01-15T04:03:55;4.35;;;1.10;;
24681;SDS011;12802;53.390;-2.328;2024-01-15T04:06:21;4.20;;;0.98;;
24681;SDS011;12802;53.390;-2.328;2024-01-15T04:08:47;2.15;;;1.17;;
24681;SDS011;12802;53.390;-2.328;2024-01-15T04:11:13;3.28;;;1.10;;
24681;SDS011;12802;53.390;-2.328;2024-01-15T04:13:39;3.30;;;1.20;;
24681;SDS011;12802;53.390;-2.328;2024-01-15T04:16:05;2.53;;;1.27;;
24681;SDS011;12802;53.390;-2.328;2024-01-15T04:18:32;3.17;;;1.00;;
24681;SDS011;12802;53.390;-2.328;2024-01-15T04:20:58;3.78;;;1.20;;
24681;SDS011;12802;53.390;-2.328;2024-01-15T04:23:24;5.60;;;1.30;;
24681;SDS011;12802;53.390;-2.328;2024-01-15T04:25:50;2.83;;;1.10;;
24681;SDS011;12802;53.390;-2.328;2024-01-15T04:28:16;4.55;;;1.10;;
24681;SDS011;12802;53.390;-2.328;2024-01-15T04:30:42;5.00;;;0.93;;
24681;SDS011;12802;53.390;-2.328;2024-01-15T04:33:09;5.90;;;1.17;;
24681;SDS011;12802;53.390;-2.328;2024-01-15T04:35:35;2.40;;;1.15;;
24681;SDS011;12802;53.390;-2.328;2024-01-15T04:38:01;3.85;;;0.90;;
24681;SDS011;12802;53.390;-2.328;2024-01-15T04:40:27;6.70;;;1.40;;
24681;SDS011;12802;53.390;-2.328;2024-01-15T04:42:54;6.28;;;1.15;;
24681;SDS011;12802;53.390;-2.328;2024-01-15T04:45:20;2.80;;;0.90;;
24681;SDS011;12802;53.390;-2.328;2024-01-15T04:47:48;1.35;;;0.77;;
24681;SDS011;12802;53.390;-2.328;2024-01-15T04:50:14;1.90;;;0.90;;
24681;SDS011;12802;53.390;-2.328;2024-01-15T04:52:40;5.95;;;1.17;;
24681;SDS011;12802;53.390;-2.328;2024-01-15T04:55:07;4.80;;;1.27;;
24681;SDS011;12802;53.390;-2.328;2024-01-15T04:57:33;2.92;;;1.13;;
24681;SDS011;12802;53.390;-2.328;2024-01-15T04:59:59;2.53;;;1.10;;
24681;SDS011;12802;53.390;-2.328;2024-01-15T05:02:25;2.35;;;0.90;;
24681;SDS011;12802;53.390;-2.328;2024-01-15T05:04:51;2.30;;;0.93;;
24681;SDS011;12802;53.390;-2.328;2024-01-15T05:07:17;1.30;;;0.70;;
24681;SDS011;12802;53.390;-2.328;2024-01-15T05:09:43;6.10;;;1.00;;
24681;SDS011;12802;53.390;-2.328;2024-01-15T05:12:10;2.80;;;0.98;;
24681;SDS011;12802;53.390;-2.328;2024-01-15T05:14:36;2.38;;;0.90;;
24681;SDS011;12802;53.390;-2.328;2024-01-15T05:17:02;2.47;;;0.80;;
24681;SDS011;12802;53.390;-2.328;2024-01-15T05:19:29;2.25;;;1.30;;
24681;SDS011;12802;53.390;-2.328;2024-01-15T05:21:55;5.20;;;1.00;;
24681;SDS011;12802;53.390;-2.328;2024-01-15T05:24:22;3.20;;;1.15;;
24681;SDS011;12802;53.390;-2.328;2024-01-15T05:26:48;4.18;;;1.02;;
24681;SDS011;12802;53.390;-2.328;2024-01-15T05:29:15;2.83;;;0.90;;
24681;SDS011;12802;53.390;-2.328;2024-01-15T05:31:41;5.20;;;1.30;;
24681;SDS011;12802;53.390;-2.328;2024-01-15T05:34:07;9.90;;;1.10;;
24681;SDS011;12802;53.390;-2.328;2024-01-15T05:36:33;2.78;;;1.05;;
24681;SDS011;12802;53.390;-2.328;2024-01-15T05:38:59;4.18;;;1.00;;
24681;SDS011;12802;53.390;-2.328;2024-01-15T05:41:25;2.28;;;1.10;;
24681;SDS011;12802;53.390;-2.328;2024-01-15T05:43:51;2.85;;;1.10;;
24681;SDS011;12802;53.390;-2.328;2024-01-15T05:46:18;3.88;;;1.10;;
24681;SDS011;12802;53.390;-2.328;2024-01-15T05:48:44;2.83;;;1.10;;
24681;SDS011;12802;53.390;-2.328;2024-01-15T05:51:10;3.17;;;0.90;;
24681;SDS011;12802;53.390;-2.328;2024-01-15T05:53:36;5.68;;;1.05;;
24681;SDS011;12802;53.390;-2.328;2024-01-15T05:56:05;1.45;;;0.75;;
24681;SDS011;12802;53.390;-2.328;2024-01-15T05:58:31;3.15;;;1.10;;
24681;SDS011;12802;53.390;-2.328;2024-01-15T06:00:58;8.80;;;1.25;;
24681;SDS011;12802;53.390;-2.328;2024-01-15T06:03:24;2.17;;;1.08;;
24681;SDS011;12802;53.390;-2.328;2024-01-15T06:05:50;5.35;;;1.38;;
24681;SDS011;12802;53.390;-2.328;2024-01-15T06:08:16;7.30;;;1.75;;
24681;SDS011;12802;53.390;-2.328;2024-01-15T06:10:42;2.63;;;1.20;;
24681;SDS011;12802;53.390;-2.328;2024-01-15T06:13:08;4.35;;;1.50;;
24681;SDS011;12802;53.390;-2.328;2024-01-15T06:15:34;7.22;;;1.38;;
24681;SDS011;12802;53.390;-2.328;2024-01-15T06:18:01;9.20;;;1.55;;
24681;SDS011;12802;53.390;-2.328;2024-01-15T06:20:27;3.47;;;1.48;;
24681;SDS011;12802;53.390;-2.328;2024-01-15T06:22:53;5.72;;;1.77;;
24681;SDS011;12802;53.390;-2.328;2024-01-15T06:25:19;4.10;;;1.17;;
24681;SDS011;12802;53.390;-2.328;2024-01-15T06:27:46;4.38;;;1.00;;
24681;SDS011;12802;53.390;-2.328;2024-01-15T06:30:14;1.50;;;0.90;;
24681;SDS011;12802;53.390;-2.328;2024-01-15T06:32:40;4.53;;;1.13;;
24681;SDS011;12802;53.390;-2.328;2024-01-15T06:35:07;3.33;;;0.90;;
24681;SDS011;12802;53.390;-2.328;2024-01-15T06:37:33;3.78;;;2.50;;
24681;SDS011;12802;53.390;-2.328;2024-01-15T06:39:59;4.90;;;1.27;;
24681;SDS011;12802;53.390;-2.328;2024-01-15T06:42:25;2.10;;;1.05;;
24681;SDS011;12802;53.390;-2.328;2024-01-15T06:44:51;5.43;;;1.13;;
24681;SDS011;12802;53.390;-2.328;2024-01-15T06:47:17;2.20;;;0.77;;
24681;SDS011;12802;53.390;-2.328;2024-01-15T06:49:44;2.20;;;0.90;;
24681;SDS011;12802;53.390;-2.328;2024-01-15T06:52:10;4.60;;;1.20;;
24681;SDS011;12802;53.390;-2.328;2024-01-15T06:54:37;6.25;;;1.35;;
24681;SDS011;12802;53.390;-2.328;2024-01-15T06:57:03;3.20;;;1.02;;
24681;SDS011;12802;53.390;-2.328;2024-01-15T06:59:31;3.88;;;0.90;;
24681;SDS011;12802;53.390;-2.328;2024-01-15T07:01:57;5.22;;;1.40;;
24681;SDS011;12802;53.390;-2.328;2024-01-15T07:04:24;3.33;;;1.00;;
24681;SDS011;12802;53.390;-2.328;2024-01-15T07:06:50;4.30;;;1.10;;
24681;SDS011;12802;53.390;-2.328;2024-01-15T07:09:17;4.18;;;1.70;;
24681;SDS011;12802;53.390;-2.328;2024-01-15T07:11:46;6.50;;;1.27;;
24681;SDS011;12802;53.390;-2.328;2024-01-15T07:16:39;6.93;;;1.33;;
24681;SDS011;12802;53.390;-2.328;2024-01-15T07:19:05;4.72;;;1.38;;
24681;SDS011;12802;53.390;-2.328;2024-01-15T07:21:31;3.28;;;1.23;;
24681;SDS011;12802;53.390;-2.328;2024-01-15T07:23:57;1.88;;;1.00;;
24681;SDS011;12802;53.390;-2.328;2024-01-15T07:26:23;3.90;;;1.13;;
24681;SDS011;12802;53.390;-2.328;2024-01-15T07:28:50;9.85;;;1.33;;
24681;SDS011;12802;53.390;-2.328;2024-01-15T07:31:17;2.80;;;0.95;;
24681;SDS011;12802;53.390;-2.328;2024-01-15T07:33:43;2.83;;;0.80;;
24681;SDS011;12802;53.390;-2.328;2024-01-15T07:36:09;13.13;;;1.58;;
24681;SDS011;12802;53.390;-2.328;2024-01-15T07:38:36;4.90;;;0.80;;
24681;SDS011;12802;53.390;-2.328;2024-01-15T07:41:02;1.35;;;0.63;;
24681;SDS011;12802;53.390;-2.328;2024-01-15T07:43:29;1.33;;;0.70;;
24681;SDS011;12802;53.390;-2.328;2024-01-15T07:45:55;4.20;;;0.80;;
24681;SDS011;12802;53.390;-2.328;2024-01-15T07:48:22;1.23;;;0.70;;
24681;SDS011;12802;53.390;-2.328;2024-01-15T07:50:48;1.58;;;0.77;;
24681;SDS011;12802;53.390;-2.328;2024-01-15T07:53:15;3.72;;;0.90;;
24681;SDS011;12802;53.390;-2.328;2024-01-15T07:55:41;2.83;;;0.70;;
24681;SDS011;12802;53.390;-2.328;2024-01-15T07:58:07;3.35;;;1.00;;
24681;SDS011;12802;53.390;-2.328;2024-01-15T08:00:33;4.18;;;0.95;;
24681;SDS011;12802;53.390;-2.328;2024-01-15T08:02:59;2.20;;;0.80;;
24681;SDS011;12802;53.390;-2.328;2024-01-15T08:05:26;2.25;;;0.70;;
24681;SDS011;12802;53.390;-2.328;2024-01-15T08:07:53;5.22;;;1.23;;
24681;SDS011;12802;53.390;-2.328;2024-01-15T08:10:19;6.88;;;1.00;;
24681;SDS011;12802;53.390;-2.328;2024-01-15T08:12:45;2.17;;;0.80;;
24681;SDS011;12802;53.390;-2.328;2024-01-15T08:15:11;4.47;;;0.95;;
24681;SDS011;12802;53.390;-2.328;2024-01-15T08:17:37;3.88;;;0.90;;
24681;SDS011;12802;53.390;-2.328;2024-01-15T08:20:04;2.97;;;0.77;;
24681;SDS011;12802;53.390;-2.328;2024-01-15T08:22:30;4.15;;;1.05;;
24681;SDS011;12802;53.390;-2.328;2024-01-15T08:24:56;2.33;;;0.85;;
24681;SDS011;12802;53.390;-2.328;2024-01-15T08:27:22;4.57;;;0.98;;
24681;SDS011;12802;53.390;-2.328;2024-01-15T08:29:48;3.45;;;1.40;;
24681;SDS011;12802;53.390;-2.328;2024-01-15T08:32:15;3.58;;;1.25;;
24681;SDS011;12802;53.390;-2.328;2024-01-15T08:34:41;4.88;;;1.30;;
24681;SDS011;12802;53.390;-2.328;2024-01-15T08:37:08;5.15;;;1.17;;
24681;SDS011;12802;53.390;-2.328;2024-01-15T08:39:34;2.95;;;0.90;;
24681;SDS011;12802;53.390;-2.328;2024-01-15T08:42:04;5.57;;;1.42;;
24681;SDS011;12802;53.390;-2.328;2024-01-15T08:44:30;3.83;;;1.30;;
24681;SDS011;12802;53.390;-2.328;2024-01-15T08:46:56;6.07;;;1.42;;
24681;SDS011;12802;53.390;-2.328;2024-01-15T08:49:22;4.03;;;1.58;;
24681;SDS011;12802;53.390;-2.328;2024-01-15T08:51:48;4.75;;;1.85;;
24681;SDS011;12802;53.390;-2.328;2024-01-15T08:54:15;2.58;;;1.25;;
24681;SDS011;12802;53.390;-2.328;2024-01-15T08:56:41;4.88;;;1.73;;
24681;SDS011;12802;53.390;-2.328;2024-01-15T08:59:07;3.67;;;1.05;;
24681;SDS011;12802;53.390;-2.328;2024-01-15T09:01:33;2.60;;;0.90;;
24681;SDS011;12802;53.390;-2.328;2024-01-15T09:03:59;3.22;;;0.80;;
24681;SDS011;12802;53.390;-2.328;2024-01-15T09:06:25;3.63;;;0.88;;
24681;SDS011;12802;53.390;-2.328;2024-01-15T09:08:51;2.50;;;0.93;;
24681;SDS011;12802;53.390;-2.328;2024-01-15T09:11:18;3.33;;;1.00;;
24681;SDS011;12802;53.390;-2.328;2024-01-15T09:13:44;3.38;;;0.93;;
24681;SDS011;12802;53.390;-2.328;2024-01-15T09:16:10;2.97;;;1.13;;
24681;SDS011;12802;53.390;-2.328;2024-01-15T09:18:36;1.85;;;0.70;;
24681;SDS011;12802;53.390;-2.328;2024-01-15T09:21:03;2.58;;;0.95;;
24681;SDS011;12802;53.390;-2.328;2024-01-15T09:23:30;2.80;;;0.70;;
24681;SDS011;12802;53.390;-2.328;2024-01-15T09:25:56;2.78;;;0.90;;
24681;SDS011;12802;53.390;-2.328;2024-01-15T09:28:22;5.18;;;1.23;;
24681;SDS011;12802;53.390;-2.328;2024-01-15T09:30:48;3.80;;;0.90;;
24681;SDS011;12802;53.390;-2.328;2024-01-15T09:33:15;2.47;;;1.02;;
24681;SDS011;12802;53.390;-2.328;2024-01-15T09:35:41;5.50;;;1.20;;
24681;SDS011;12802;53.390;-2.328;2024-01-15T09:38:07;4.30;;;1.20;;
24681;SDS011;12802;53.390;-2.328;2024-01-15T09:40:33;6.80;;;1.67;;
24681;SDS011;12802;53.390;-2.328;2024-01-15T09:42:59;4.88;;;1.33;;
24681;SDS011;12802;53.390;-2.328;2024-01-15T09:45:26;8.55;;;1.63;;
24681;SDS011;12802;53.390;-2.328;2024-01-15T09:47:52;3.78;;;1.40;;
24681;SDS011;12802;53.390;-2.328;2024-01-15T09:50:18;3.22;;;1.30;;
24681;SDS011;12802;53.390;-2.328;2024-01-15T09:52:45;2.75;;;1.17;;
24681;SDS011;12802;53.390;-2.328;2024-01-15T09:55:11;7.45;;;3.10;;
24681;SDS011;12802;53.390;-2.328;2024-01-15T09:57:39;8.50;;;2.33;;
24681;SDS011;12802;53.390;-2.328;2024-01-15T10:00:05;4.13;;;1.73;;
24681;SDS011;12802;53.390;-2.328;2024-01-15T10:02:32;5.03;;;1.50;;
24681;SDS011;12802;53.390;-2.328;2024-01-15T10:04:58;8.77;;;2.72;;
24681;SDS011;12802;53.390;-2.328;2024-01-15T10:07:25;7.68;;;2.05;;
24681;SDS011;12802;53.390;-2.328;2024-01-15T10:09:53;6.05;;;1.92;;
24681;SDS011;12802;53.390;-2.328;2024-01-15T10:12:20;3.00;;;1.10;;
24681;SDS011;12802;53.390;-2.328;2024-01-15T10:14:46;4.72;;;1.17;;
24681;SDS011;12802;53.390;-2.328;2024-01-15T10:17:14;5.07;;;1.85;;
24681;SDS011;12802;53.390;-2.328;2024-01-15T10:19:40;15.88;;;8.43;;
24681;SDS011;12802;53.390;-2.328;2024-01-15T10:22:08;10.27;;;3.35;;
24681;SDS011;12802;53.390;-2.328;2024-01-15T10:24:37;4.75;;;1.63;;
24681;SDS011;12802;53.390;-2.328;2024-01-15T10:27:10;8.68;;;1.92;;
24681;SDS011;12802;53.390;-2.328;2024-01-15T10:29:36;13.27;;;4.75;;
24681;SDS011;12802;53.390;-2.328;2024-01-15T10:32:03;7.95;;;2.83;;
24681;SDS011;12802;53.390;-2.328;2024-01-15T10:34:30;3.58;;;1.33;;
24681;SDS011;12802;53.390;-2.328;2024-01-15T10:36:56;5.97;;;2.42;;
24681;SDS011;12802;53.390;-2.328;2024-01-15T10:39:22;4.03;;;1.60;;
24681;SDS011;12802;53.390;-2.328;2024-01-15T10:41:49;3.92;;;1.80;;
24681;SDS011;12802;53.390;-2.328;2024-01-15T10:44:18;4.95;;;2.88;;
24681;SDS011;12802;53.390;-2.328;2024-01-15T10:46:45;3.67;;;1.30;;
24681;SDS011;12802;53.390;-2.328;2024-01-15T10:49:12;5.18;;;1.95;;
24681;SDS011;12802;53.390;-2.328;2024-01-15T10:51:38;3.28;;;0.80;;
24681;SDS011;12802;53.390;-2.328;2024-01-15T10:54:04;6.32;;;1.40;;
24681;SDS011;12802;53.390;-2.328;2024-01-15T10:56:33;7.43;;;1.90;;
24681;SDS011;12802;53.390;-2.328;2024-01-15T10:59:01;3.25;;;0.93;;
24681;SDS011;12802;53.390;-2.328;2024-01-15T11:01:28;3.03;;;0.88;;
24681;SDS011;12802;53.390;-2.328;2024-01-15T11:03:54;5.32;;;0.80;;
24681;SDS011;12802;53.390;-2.328;2024-01-15T11:06:23;3.58;;;1.35;;
24681;SDS011;12802;53.390;-2.328;2024-01-15T11:08:50;2.60;;;0.98;;
24681;SDS011;12802;53.390;-2.328;2024-01-15T11:11:16;4.47;;;0.73;;
24681;SDS011;12802;53.390;-2.328;2024-01-15T11:13:43;5.68;;;0.85;;
24681;SDS011;12802;53.390;-2.328;2024-01-15T11:16:10;1.83;;;0.60;;
24681;SDS011;12802;53.390;-2.328;2024-01-15T11:21:24;7.10;;;0.90;;
24681;SDS011;12802;53.390;-2.328;2024-01-15T11:23:58;3.55;;;0.55;;
24681;SDS011;12802;53.390;-2.328;2024-01-15T11:28:57;3.00;;;0.60;;
24681;SDS011;12802;53.390;-2.328;2024-01-15T11:31:26;1.65;;;0.80;;
24681;SDS011;12802;53.390;-2.328;2024-01-15T11:33:52;3.15;;;0.70;;
24681;SDS011;12802;53.390;-2.328;2024-01-15T11:36:20;2.83;;;0.52;;
24681;SDS011;12802;53.390;-2.328;2024-01-15T11:38:46;2.50;;;0.80;;
24681;SDS011;12802;53.390;-2.328;2024-01-15T11:41:15;4.28;;;1.25;;
24681;SDS011;12802;53.390;-2.328;2024-01-15T11:43:42;6.90;;;0.73;;
24681;SDS011;12802;53.390;-2.328;2024-01-15T11:46:10;3.67;;;1.00;;
24681;SDS011;12802;53.390;-2.328;2024-01-15T11:48:42;9.23;;;1.10;;
24681;SDS011;12802;53.390;-2.328;2024-01-15T11:51:12;4.80;;;1.13;;
24681;SDS011;12802;53.390;-2.328;2024-01-15T11:53:48;7.07;;;1.30;;
24681;SDS011;12802;53.390;-2.328;2024-01-15T11:56:15;5.95;;;0.88;;
24681;SDS011;12802;53.390;-2.328;2024-01-15T12:01:10;8.10;;;0.80;;
24681;SDS011;12802;53.390;-2.328;2024-01-15T12:03:37;2.47;;;0.70;;
24681;SDS011;12802;53.390;-2.328;2024-01-15T12:06:06;7.72;;;1.00;;
24681;SDS011;12802;53.390;-2.328;2024-01-15T12:10:58;3.90;;;0.60;;
24681;SDS011;12802;53.390;-2.328;2024-01-15T12:13:26;2.70;;;0.45;;
24681;SDS011;12802;53.390;-2.328;2024-01-15T12:15:54;2.97;;;0.40;;
24681;SDS011;12802;53.390;-2.328;2024-01-15T12:18:20;3.75;;;0.60;;
24681;SDS011;12802;53.390;-2.328;2024-01-15T12:20:46;4.32;;;1.33;;
24681;SDS011;12802;53.390;-2.328;2024-01-15T12:23:12;1.70;;;0.70;;
24681;SDS011;12802;53.390;-2.328;2024-01-15T12:25:39;5.15;;;0.57;;
24681;SDS011;12802;53.390;-2.328;2024-01-15T12:28:05;3.53;;;0.60;;
24681;SDS011;12802;53.390;-2.328;2024-01-15T12:30:32;5.10;;;0.50;;
24681;SDS011;12802;53.390;-2.328;2024-01-15T12:33:02;2.15;;;0.70;;
24681;SDS011;12802;53.390;-2.328;2024-01-15T12:35:29;4.50;;;1.08;;
24681;SDS011;12802;53.390;-2.328;2024-01-15T12:37:55;2.13;;;0.63;;
24681;SDS011;12802;53.390;-2.328;2024-01-15T12:40:22;2.33;;;0.50;;
24681;SDS011;12802;53.390;-2.328;2024-01-15T12:42:48;3.20;;;0.82;;
24681;SDS011;12802;53.390;-2.328;2024-01-15T12:45:14;3.75;;;0.77;;
24681;SDS011;12802;53.390;-2.328;2024-01-15T12:47:41;3.35;;;0.80;;
24681;SDS011;12802;53.390;-2.328;2024-01-15T12:50:08;2.20;;;0.40;;
24681;SDS011;12802;53.390;-2.328;2024-01-15T12:52:35;5.78;;;0.70;;
24681;SDS011;12802;53.390;-2.328;2024-01-15T12:55:04;1.67;;;0.43;;
24681;SDS011;12802;53.390;-2.328;2024-01-15T12:57:30;3.28;;;0.60;;
24681;SDS011;12802;53.390;-2.328;2024-01-15T12:59:56;1.88;;;0.90;;
24681;SDS011;12802;53.390;-2.328;2024-01-15T13:02:22;3.65;;;0.68;;
24681;SDS011;12802;53.390;-2.328;2024-01-15T13:04:49;2.13;;;0.52;;
24681;SDS011;12802;53.390;-2.328;2024-01-15T13:07:15;1.63;;;0.40;;
24681;SDS011;12802;53.390;-2.328;2024-01-15T13:09:41;2.08;;;0.73;;
24681;SDS011;12802;53.390;-2.328;2024-01-15T13:12:08;4.47;;;0.45;;
24681;SDS011;12802;53.390;-2.328;2024-01-15T13:14:34;4.38;;;0.70;;
24681;SDS011;12802;53.390;-2.328;2024-01-15T13:17:01;4.13;;;0.85;;
24681;SDS011;12802;53.390;-2.328;2024-01-15T13:19:28;3.50;;;0.60;;
24681;SDS011;12802;53.390;-2.328;2024-01-15T13:21:55;2.50;;;0.50;;
24681;SDS011;12802;53.390;-2.328;2024-01-15T13:24:23;6.50;;;0.82;;
24681;SDS011;12802;53.390;-2.328;2024-01-15T13:26:49;6.60;;;0.70;;
24681;SDS011;12802;53.390;-2.328;2024-01-15T13:29:16;1.35;;;0.40;;
24681;SDS011;12802;53.390;-2.328;2024-01-15T13:31:42;1.85;;;0.45;;
24681;SDS011;12802;53.390;-2.328;2024-01-15T13:34:09;4.65;;;0.45;;
24681;SDS011;12802;53.390;-2.328;2024-01-15T13:36:36;6.78;;;1.02;;
24681;SDS011;12802;53.390;-2.328;2024-01-15T13:39:04;4.57;;;0.80;;
24681;SDS011;12802;53.390;-2.328;2024-01-15T13:41:34;4.03;;;0.43;;
24681;SDS011;12802;53.390;-2.328;2024-01-15T13:44:00;3.45;;;0.80;;
24681;SDS011;12802;53.390;-2.328;2024-01-15T13:46:27;2.03;;;0.63;;
24681;SDS011;12802;53.390;-2.328;2024-01-15T13:48:53;5.70;;;0.52;;
24681;SDS011;12802;53.390;-2.328;2024-01-15T13:51:21;2.20;;;0.60;;
24681;SDS011;12802;53.390;-2.328;2024-01-15T13:53:48;1.50;;;0.50;;
24681;SDS011;12802;53.390;-2.328;2024-01-15T13:56:15;3.78;;;1.08;;
24681;SDS011;12802;53.390;-2.328;2024-01-15T13:58:41;4.75;;;0.38;;
24681;SDS011;12802;53.390;-2.328;2024-01-15T14:01:08;5.38;;;0.50;;
24681;SDS011;12802;53.390;-2.328;2024-01-15T14:03:34;1.58;;;0.50;;
24681;SDS011;12802;53.390;-2.328;2024-01-15T14:06:00;2.25;;;0.60;;
24681;SDS011;12802;53.390;-2.328;2024-01-15T14:08:34;1.75;;;0.40;;
24681;SDS011;12802;53.390;-2.328;2024-01-15T14:11:01;2.60;;;0.55;;
24681;SDS011;12802;53.390;-2.328;2024-01-15T14:13:27;3.83;;;0.68;;
24681;SDS011;12802;53.390;-2.328;2024-01-15T14:15:53;3.22;;;0.82;;
24681;SDS011;12802;53.390;-2.328;2024-01-15T14:18:21;5.78;;;0.47;;
24681;SDS011;12802;53.390;-2.328;2024-01-15T14:20:47;0.57;;;0.20;;
24681;SDS011;12802;53.390;-2.328;2024-01-15T14:23:13;7.82;;;0.60;;
24681;SDS011;12802;53.390;-2.328;2024-01-15T14:25:39;1.08;;;0.47;;
24681;SDS011;12802;53.390;-2.328;2024-01-15T14:28:05;4.78;;;0.65;;
24681;SDS011;12802;53.390;-2.328;2024-01-15T14:30:31;1.90;;;0.50;;
24681;SDS011;12802;53.390;-2.328;2024-01-15T14:32:58;3.30;;;0.40;;
24681;SDS011;12802;53.390;-2.328;2024-01-15T14:35:24;4.97;;;0.75;;
24681;SDS011;12802;53.390;-2.328;2024-01-15T14:37:50;5.90;;;1.02;;
24681;SDS011;12802;53.390;-2.328;2024-01-15T14:40:16;5.03;;;0.98;;